Fort Yukon, Alaska
Current Conditions -  °F | °C
As of 11:16 AM on Sunday 21 Dec 2014 (Local Time) from PFYU Reporting Station
Clear Clear  
Wind Chill: -16°   Ceiling: Unl
Heat Index: -2°   Visibility: 10mi
Dew Point: -6°   Wind: 7mph
Humidity: 85%   Direction: 40°NE
Pressure: 29.42"   Gusts: NA
Location:  66.57°N, 145.27°W
Report Text: PFYU 212016Z 04006KT 10SM CLR M19/M21 A2942 RMK AO1
Loading
Personal Weather Stations






























Interactive Weather Map New forecast layout! Learn more

10-Day Weather Forecast

Advertisements
Track Severe Weather on mobile